createdAt,value
2018-05-24T00:02:27.384Z,1.60
2018-05-24T00:04:54.909Z,1.73
2018-05-24T00:07:22.436Z,1.80
2018-05-24T00:09:49.960Z,1.70
2018-05-24T00:12:17.480Z,1.83
2018-05-24T00:14:44.999Z,1.85
2018-05-24T00:17:12.522Z,1.67
2018-05-24T00:19:40.040Z,1.80
2018-05-24T00:22:07.580Z,1.67
2018-05-24T00:24:35.104Z,1.50
2018-05-24T00:27:02.650Z,1.50
2018-05-24T00:29:30.168Z,1.70
2018-05-24T00:31:57.721Z,1.60
2018-05-24T00:34:25.241Z,1.60
2018-05-24T00:36:52.782Z,1.90
2018-05-24T00:39:20.300Z,1.50
2018-05-24T00:41:47.838Z,1.77
2018-05-24T00:44:15.363Z,1.50
2018-05-24T00:46:42.885Z,1.65
2018-05-24T00:49:10.403Z,1.60
2018-05-24T00:51:37.933Z,1.90
2018-05-24T00:54:05.447Z,1.70
2018-05-24T00:56:32.972Z,1.77
2018-05-24T00:59:00.483Z,1.90
2018-05-24T01:01:28.008Z,1.80
2018-05-24T01:03:55.541Z,1.87
2018-05-24T01:06:23.060Z,1.75
2018-05-24T01:08:50.582Z,1.92
2018-05-24T01:11:18.105Z,1.85
2018-05-24T01:13:45.615Z,1.80
2018-05-24T01:16:13.127Z,1.70
2018-05-24T01:18:40.654Z,1.83
2018-05-24T01:21:08.174Z,1.95
2018-05-24T01:23:35.693Z,1.87
2018-05-24T01:26:03.213Z,1.90
2018-05-24T01:28:30.735Z,1.90
2018-05-24T01:30:58.253Z,1.60
2018-05-24T01:33:25.774Z,2.10
2018-05-24T01:35:53.286Z,1.62
2018-05-24T01:38:20.803Z,1.98
2018-05-24T01:40:48.327Z,1.98
2018-05-24T01:43:15.843Z,1.80
2018-05-24T01:45:44.129Z,1.77
2018-05-24T01:48:11.643Z,2.03
2018-05-24T01:50:39.158Z,2.10
2018-05-24T01:53:06.683Z,2.05
2018-05-24T01:55:34.208Z,1.77
2018-05-24T01:58:01.738Z,2.28
2018-05-24T02:00:29.267Z,1.87
2018-05-24T02:02:56.803Z,2.12
2018-05-24T02:05:24.327Z,1.90
2018-05-24T02:07:51.872Z,2.08
2018-05-24T02:10:19.391Z,2.47
2018-05-24T02:12:46.921Z,2.35
2018-05-24T02:15:14.434Z,1.95
2018-05-24T02:17:41.968Z,2.15
2018-05-24T02:20:09.487Z,1.98
2018-05-24T02:22:37.011Z,2.17
2018-05-24T02:25:04.540Z,1.92
2018-05-24T02:27:32.052Z,1.83
2018-05-24T02:29:59.585Z,2.05
2018-05-24T02:32:27.100Z,2.30
2018-05-24T02:34:54.625Z,1.90
2018-05-24T02:37:22.908Z,1.92
2018-05-24T02:39:50.432Z,1.90
2018-05-24T02:42:17.947Z,2.53
2018-05-24T02:44:45.465Z,1.90
2018-05-24T02:47:12.973Z,1.95
2018-05-24T02:49:40.503Z,2.30
2018-05-24T02:52:08.022Z,2.05
2018-05-24T02:54:35.531Z,2.30
2018-05-24T02:57:03.059Z,2.37
2018-05-24T02:59:30.577Z,2.35
2018-05-24T03:01:58.136Z,2.37
2018-05-24T03:04:25.660Z,2.58
2018-05-24T03:06:53.172Z,2.20
2018-05-24T03:09:21.457Z,2.00
2018-05-24T03:11:48.982Z,1.95
2018-05-24T03:14:16.574Z,2.20
2018-05-24T03:16:44.032Z,2.30
2018-05-24T03:19:11.542Z,2.40
2018-05-24T03:21:39.060Z,2.15
2018-05-24T03:24:06.583Z,2.20
2018-05-24T03:26:34.113Z,2.40
2018-05-24T03:29:01.633Z,2.58
2018-05-24T03:31:29.155Z,2.10
2018-05-24T03:33:56.667Z,2.35
2018-05-24T03:36:24.181Z,2.33
2018-05-24T03:38:51.703Z,2.60
2018-05-24T03:41:19.224Z,2.15
2018-05-24T03:43:46.773Z,2.37
2018-05-24T03:46:14.295Z,2.70
2018-05-24T03:48:41.832Z,2.47
2018-05-24T03:51:09.353Z,2.70
2018-05-24T03:53:36.890Z,2.50
2018-05-24T03:56:04.419Z,2.42
2018-05-24T03:58:31.931Z,2.60
2018-05-24T04:01:11.051Z,2.20
2018-05-24T04:03:46.542Z,2.30
2018-05-24T04:06:15.548Z,2.05
2018-05-24T04:08:43.064Z,2.50
2018-05-24T04:11:10.579Z,2.55
2018-05-24T04:13:38.097Z,2.30
2018-05-24T04:16:05.629Z,2.95
2018-05-24T04:18:33.154Z,2.70
2018-05-24T04:21:00.671Z,2.58
2018-05-24T04:23:28.180Z,2.42
2018-05-24T04:25:55.704Z,2.30
2018-05-24T04:28:23.259Z,2.45
2018-05-24T04:30:50.782Z,2.50
2018-05-24T04:33:18.292Z,2.50
2018-05-24T04:35:45.803Z,2.72
2018-05-24T04:38:13.325Z,2.67
2018-05-24T04:40:40.864Z,2.28
2018-05-24T04:43:08.375Z,2.47
2018-05-24T04:45:35.962Z,2.70
2018-05-24T04:48:03.419Z,2.28
2018-05-24T04:50:30.939Z,2.60
2018-05-24T04:52:59.227Z,2.85
2018-05-24T04:55:26.799Z,2.58
2018-05-24T04:57:54.322Z,2.70
2018-05-24T05:00:21.835Z,2.85
2018-05-24T05:02:49.352Z,2.83
2018-05-24T05:05:16.884Z,2.95
2018-05-24T05:07:44.405Z,2.90
2018-05-24T05:10:11.926Z,2.90
2018-05-24T05:12:39.448Z,2.80
2018-05-24T05:15:07.003Z,2.75
2018-05-24T05:17:34.522Z,2.90
2018-05-24T05:20:02.039Z,2.80
2018-05-24T05:22:29.622Z,2.67
2018-05-24T05:24:57.154Z,3.08
2018-05-24T05:27:24.672Z,2.55
2018-05-24T05:29:52.196Z,2.75
2018-05-24T05:32:19.723Z,3.17
2018-05-24T05:34:47.242Z,3.28
2018-05-24T05:37:15.519Z,3.40
2018-05-24T05:39:43.123Z,3.75
2018-05-24T05:42:10.639Z,3.10
2018-05-24T05:44:38.951Z,3.28
2018-05-24T05:47:06.472Z,3.70
2018-05-24T05:49:34.752Z,3.00
2018-05-24T05:52:02.358Z,3.22
2018-05-24T05:54:29.807Z,2.92
2018-05-24T05:56:57.333Z,3.42
2018-05-24T05:59:24.847Z,3.22
2018-05-24T06:01:52.400Z,3.20
2018-05-24T06:04:19.899Z,3.10
2018-05-24T06:06:47.460Z,3.42
2018-05-24T06:09:14.990Z,3.55
2018-05-24T06:11:42.507Z,3.15
2018-05-24T06:14:10.030Z,3.17
2018-05-24T06:16:37.569Z,3.20
2018-05-24T06:19:05.107Z,3.40
2018-05-24T06:21:32.644Z,3.58
2018-05-24T06:24:00.164Z,3.33
2018-05-24T06:26:27.675Z,3.83
2018-05-24T06:28:55.222Z,3.72
2018-05-24T06:31:22.762Z,3.45
2018-05-24T06:33:50.284Z,3.10
2018-05-24T06:36:17.808Z,3.42
2018-05-24T06:38:45.331Z,3.47
2018-05-24T06:41:12.852Z,3.30
2018-05-24T06:43:40.360Z,3.10
2018-05-24T06:46:07.875Z,3.20
2018-05-24T06:48:35.387Z,3.30
2018-05-24T06:51:02.895Z,3.30
2018-05-24T06:53:30.406Z,3.78
2018-05-24T06:55:58.684Z,3.35
2018-05-24T06:58:26.202Z,3.42
2018-05-24T07:00:53.715Z,3.15
2018-05-24T07:03:21.228Z,3.28
2018-05-24T07:05:48.822Z,3.28
2018-05-24T07:08:16.283Z,3.42
2018-05-24T07:10:44.588Z,3.60
2018-05-24T07:13:12.110Z,3.30
2018-05-24T07:15:39.619Z,3.70
2018-05-24T07:18:07.150Z,3.35
2018-05-24T07:20:35.457Z,3.70
2018-05-24T07:23:03.112Z,3.50
2018-05-24T07:25:30.636Z,3.53
2018-05-24T07:27:58.154Z,3.55
2018-05-24T07:30:25.697Z,3.75
2018-05-24T07:32:53.219Z,4.55
2018-05-24T07:35:20.739Z,3.95
2018-05-24T07:37:48.267Z,3.80
2018-05-24T07:40:15.783Z,4.40
2018-05-24T07:42:43.314Z,4.75
2018-05-24T07:45:10.906Z,3.85
2018-05-24T07:47:38.365Z,3.67
2018-05-24T07:50:05.895Z,4.00
2018-05-24T07:52:33.419Z,4.20
2018-05-24T07:55:00.942Z,4.18
2018-05-24T07:57:28.467Z,4.55
2018-05-24T07:59:55.997Z,4.15
2018-05-24T08:02:23.524Z,4.70
2018-05-24T08:04:51.089Z,5.00
2018-05-24T08:07:18.627Z,4.78
2018-05-24T08:09:46.191Z,4.70
2018-05-24T08:12:13.699Z,4.53
2018-05-24T08:14:41.292Z,5.25
2018-05-24T08:17:09.520Z,4.70
2018-05-24T08:19:37.038Z,5.12
2018-05-24T08:22:04.552Z,5.70
2018-05-24T08:24:32.076Z,5.20
2018-05-24T08:26:59.600Z,5.65
2018-05-24T08:29:27.120Z,4.90
2018-05-24T08:31:54.632Z,5.15
2018-05-24T08:34:22.151Z,4.95
2018-05-24T08:36:49.667Z,5.07
2018-05-24T08:39:17.180Z,5.70
2018-05-24T08:41:44.787Z,5.97
2018-05-24T08:44:13.005Z,5.30
2018-05-24T08:46:40.531Z,5.68
2018-05-24T08:49:08.035Z,5.75
2018-05-24T08:51:35.555Z,5.85
2018-05-24T08:54:03.075Z,7.70
2018-05-24T08:56:30.610Z,5.90
2018-05-24T08:58:58.136Z,5.68
2018-05-24T09:01:25.702Z,6.22
2018-05-24T09:03:53.211Z,5.85
2018-05-24T09:06:20.727Z,5.80
2018-05-24T09:08:48.242Z,5.22
2018-05-24T09:11:15.756Z,6.32
2018-05-24T09:13:44.044Z,6.53
2018-05-24T09:16:11.562Z,5.78
2018-05-24T09:18:39.080Z,5.97
2018-05-24T09:21:06.615Z,6.53
2018-05-24T09:23:34.899Z,6.10
2018-05-24T09:26:02.412Z,6.68
2018-05-24T09:28:29.939Z,7.65
2018-05-24T09:30:57.462Z,6.32
2018-05-24T09:33:25.739Z,7.25
2018-05-24T09:35:53.272Z,6.30
2018-05-24T09:38:20.796Z,6.25
2018-05-24T09:40:48.318Z,6.07
2018-05-24T09:43:16.602Z,6.82
2018-05-24T09:45:44.113Z,6.30
2018-05-24T09:48:11.645Z,6.15
2018-05-24T09:50:39.168Z,6.45
2018-05-24T09:53:06.676Z,6.10
2018-05-24T09:55:34.191Z,5.82
2018-05-24T09:58:01.699Z,5.72
2018-05-24T10:00:29.215Z,5.35
2018-05-24T10:02:56.739Z,5.57
2018-05-24T10:05:24.268Z,5.30
2018-05-24T10:07:51.780Z,5.72
2018-05-24T10:10:19.307Z,5.55
2018-05-24T10:12:46.824Z,5.93
2018-05-24T10:15:15.107Z,5.80
2018-05-24T10:17:42.637Z,5.95
2018-05-24T10:20:10.162Z,7.18
2018-05-24T10:22:37.672Z,8.40
2018-05-24T10:25:05.943Z,7.60
2018-05-24T10:27:33.460Z,8.40
2018-05-24T10:30:00.980Z,8.25
2018-05-24T10:32:28.529Z,7.93
2018-05-24T10:34:56.817Z,8.40
2018-05-24T10:37:24.343Z,8.65
2018-05-24T10:39:51.861Z,7.93
2018-05-24T10:42:19.411Z,9.10
2018-05-24T10:44:46.948Z,8.02
2018-05-24T10:47:15.232Z,7.90
2018-05-24T10:49:42.753Z,8.65
2018-05-24T10:52:10.272Z,9.55
2018-05-24T10:54:37.788Z,8.75
2018-05-24T10:57:05.322Z,8.38
2018-05-24T10:59:32.946Z,8.63
2018-05-24T11:02:00.387Z,8.40
2018-05-24T11:04:27.912Z,7.72
2018-05-24T11:06:55.439Z,7.93
2018-05-24T11:09:22.980Z,8.52
2018-05-24T11:11:50.499Z,8.35
2018-05-24T11:14:18.016Z,8.70
2018-05-24T11:16:45.535Z,8.20
2018-05-24T11:19:13.067Z,8.30
2018-05-24T11:21:40.589Z,8.18
2018-05-24T11:24:08.117Z,8.35
2018-05-24T11:26:35.643Z,8.43
2018-05-24T11:29:03.160Z,8.45
2018-05-24T11:31:30.687Z,8.18
2018-05-24T11:33:58.220Z,8.15
2018-05-24T11:36:25.746Z,8.30
2018-05-24T11:38:53.263Z,7.75
2018-05-24T11:41:20.789Z,8.13
2018-05-24T11:43:48.311Z,8.00
2018-05-24T11:46:15.823Z,7.37
2018-05-24T11:48:43.343Z,7.85
2018-05-24T11:51:10.855Z,7.80
2018-05-24T11:53:38.380Z,7.70
2018-05-24T11:56:05.904Z,9.23
2018-05-24T11:58:33.419Z,8.80
2018-05-24T12:01:00.936Z,8.02
2018-05-24T12:03:28.475Z,8.10
2018-05-24T12:05:55.991Z,8.38
2018-05-24T12:08:23.511Z,7.57
2018-05-24T12:10:51.795Z,7.43
2018-05-24T12:13:19.312Z,7.80
2018-05-24T12:15:46.839Z,7.65
2018-05-24T12:18:14.372Z,7.87
2018-05-24T12:20:41.895Z,8.70
2018-05-24T12:23:09.421Z,8.32
2018-05-24T12:25:36.940Z,9.00
2018-05-24T12:28:04.460Z,8.40
2018-05-24T12:30:31.980Z,8.65
2018-05-24T12:32:59.495Z,8.93
2018-05-24T12:35:27.065Z,9.52
2018-05-24T12:37:54.555Z,8.95
2018-05-24T12:40:22.075Z,9.85
2018-05-24T12:42:49.597Z,9.18
2018-05-24T12:45:17.107Z,8.88
2018-05-24T12:47:44.637Z,9.20
2018-05-24T12:50:12.159Z,9.05
2018-05-24T12:52:39.694Z,9.57
2018-05-24T12:55:07.447Z,9.93
2018-05-24T12:57:34.974Z,9.48
2018-05-24T13:00:02.489Z,9.45
2018-05-24T13:02:30.007Z,10.73
2018-05-24T13:04:57.528Z,10.35
2018-05-24T13:07:25.059Z,9.95
2018-05-24T13:09:53.415Z,9.85
2018-05-24T13:12:20.880Z,9.60
2018-05-24T13:14:48.392Z,9.02
2018-05-24T13:17:15.909Z,9.43
2018-05-24T13:19:44.195Z,9.05
2018-05-24T13:22:11.938Z,9.23
2018-05-24T13:24:39.465Z,9.65
2018-05-24T13:27:06.981Z,9.35
2018-05-24T13:29:34.494Z,9.07
2018-05-24T13:32:02.007Z,8.88
2018-05-24T13:34:29.580Z,8.88
2018-05-24T13:36:57.072Z,9.65
2018-05-24T13:39:24.595Z,10.02
2018-05-24T13:41:52.112Z,9.73
2018-05-24T13:44:19.632Z,10.25
2018-05-24T13:46:47.147Z,10.40
2018-05-24T13:49:15.436Z,10.55
2018-05-24T13:51:43.722Z,10.73
2018-05-24T13:54:11.275Z,11.20
2018-05-24T13:56:38.792Z,11.15
2018-05-24T13:59:06.315Z,11.10
2018-05-24T14:01:33.869Z,10.98
2018-05-24T14:04:01.379Z,10.77
2018-05-24T14:06:28.892Z,10.35
2018-05-24T14:08:56.419Z,11.20
2018-05-24T14:11:23.940Z,11.07
2018-05-24T14:13:51.453Z,11.10
2018-05-24T14:16:18.975Z,11.27
2018-05-24T14:18:46.493Z,11.77
2018-05-24T14:21:14.028Z,14.68
2018-05-24T14:23:41.547Z,12.63
2018-05-24T14:26:09.127Z,12.43
2018-05-24T14:28:36.633Z,11.45
2018-05-24T14:31:04.160Z,12.43
2018-05-24T14:33:31.683Z,11.07
2018-05-24T14:35:59.214Z,11.45
2018-05-24T14:38:26.726Z,12.00
2018-05-24T14:40:54.253Z,12.10
2018-05-24T14:43:21.776Z,12.77
2018-05-24T14:45:49.299Z,12.65
2018-05-24T14:48:16.827Z,12.27
2018-05-24T14:50:44.343Z,12.50
2018-05-24T14:53:11.854Z,12.93
2018-05-24T14:55:39.376Z,12.80
2018-05-24T14:58:07.671Z,12.40
2018-05-24T15:00:35.191Z,12.48
2018-05-24T15:03:02.715Z,12.13
2018-05-24T15:05:30.277Z,12.60
2018-05-24T15:07:57.786Z,13.25
2018-05-24T15:10:26.073Z,13.88
2018-05-24T15:12:53.596Z,13.10
2018-05-24T15:15:21.115Z,13.48
2018-05-24T15:17:48.639Z,13.27
2018-05-24T15:20:16.181Z,14.10
2018-05-24T15:22:43.704Z,13.70
2018-05-24T15:25:11.228Z,13.82
2018-05-24T15:27:38.750Z,13.57
2018-05-24T15:30:06.262Z,13.27
2018-05-24T15:32:33.797Z,12.98
2018-05-24T15:35:02.105Z,13.15
2018-05-24T15:37:29.627Z,13.88
2018-05-24T15:39:57.151Z,12.05
2018-05-24T15:42:24.667Z,12.30
2018-05-24T15:44:52.956Z,12.23
2018-05-24T15:47:20.475Z,11.45
2018-05-24T15:49:48.016Z,11.82
2018-05-24T15:52:15.539Z,11.45
2018-05-24T15:54:43.068Z,10.80
2018-05-24T15:57:11.359Z,11.10
2018-05-24T15:59:38.957Z,10.27
2018-05-24T16:02:06.476Z,10.73
2018-05-24T16:04:34.000Z,11.05
2018-05-24T16:07:01.522Z,10.60
2018-05-24T16:09:29.039Z,10.55
2018-05-24T16:11:56.571Z,11.40
2018-05-24T16:14:24.104Z,10.73
2018-05-24T16:16:51.624Z,11.57
2018-05-24T16:19:19.145Z,10.65
2018-05-24T16:21:46.668Z,11.48
2018-05-24T16:24:14.200Z,10.60
2018-05-24T16:26:41.726Z,11.05
2018-05-24T16:29:09.242Z,11.43
2018-05-24T16:31:36.767Z,11.73
2018-05-24T16:34:04.290Z,11.50
2018-05-24T16:36:31.815Z,11.43
2018-05-24T16:39:00.105Z,11.50
2018-05-24T16:41:27.641Z,11.63
2018-05-24T16:43:55.167Z,12.40
2018-05-24T16:46:25.979Z,12.18
2018-05-24T16:48:53.494Z,11.73
2018-05-24T16:51:21.033Z,12.20
2018-05-24T16:53:48.562Z,11.65
2018-05-24T16:56:16.094Z,12.68
2018-05-24T16:58:43.623Z,12.05
2018-05-24T17:01:11.165Z,11.70
2018-05-24T17:03:38.703Z,11.00
2018-05-24T17:06:06.228Z,11.10
2018-05-24T17:08:33.742Z,12.05
2018-05-24T17:11:01.267Z,11.63
2018-05-24T17:13:28.792Z,11.68
2018-05-24T17:15:56.322Z,10.90
2018-05-24T17:18:23.846Z,11.57
2018-05-24T17:20:51.375Z,11.95
2018-05-24T17:23:18.951Z,12.43
2018-05-24T17:25:46.475Z,11.68
2018-05-24T17:28:14.000Z,11.63
2018-05-24T17:30:41.520Z,12.05
2018-05-24T17:33:09.808Z,12.40
2018-05-24T17:35:37.329Z,12.57
2018-05-24T17:38:04.859Z,11.95
2018-05-24T17:40:32.382Z,12.05
2018-05-24T17:42:59.906Z,11.88
2018-05-24T17:45:27.432Z,12.88
2018-05-24T17:47:54.960Z,13.07
2018-05-24T17:50:23.247Z,12.23
2018-05-24T17:52:51.539Z,12.20
2018-05-24T17:55:19.063Z,12.57
2018-05-24T17:57:46.588Z,11.85
2018-05-24T18:00:14.107Z,13.40
2018-05-24T18:02:42.391Z,12.90
2018-05-24T18:05:09.911Z,12.52
2018-05-24T18:07:37.436Z,12.77
2018-05-24T18:10:04.956Z,12.25
2018-05-24T18:12:32.511Z,13.10
2018-05-24T19:36:57.819Z,12.60
2018-05-24T19:39:26.116Z,12.10
2018-05-24T19:41:53.645Z,12.45
2018-05-24T19:44:21.926Z,11.32
2018-05-24T19:46:50.214Z,11.93
2018-05-24T19:49:17.739Z,12.48
2018-05-24T19:51:45.263Z,11.80
2018-05-24T19:54:12.787Z,12.40
2018-05-24T19:56:40.306Z,11.50
2018-05-24T19:59:07.829Z,11.88
2018-05-24T20:01:35.343Z,12.10
2018-05-24T20:04:02.864Z,12.32
2018-05-24T20:06:30.379Z,13.20
2018-05-24T20:08:58.676Z,12.57
2018-05-24T20:11:26.203Z,12.85
2018-05-24T20:13:53.723Z,12.25
2018-05-24T20:16:21.243Z,12.73
2018-05-24T20:18:48.783Z,13.25
2018-05-24T20:21:16.307Z,12.90
2018-05-24T20:23:43.861Z,13.57
2018-05-24T20:26:11.402Z,12.75
2018-05-24T20:28:38.955Z,12.60
2018-05-24T20:31:06.484Z,13.45
2018-05-24T20:33:34.039Z,13.62
2018-05-24T20:36:01.567Z,13.93
2018-05-24T20:38:29.103Z,14.00
2018-05-24T20:40:56.630Z,13.75
2018-05-24T20:43:24.167Z,14.30
2018-05-24T20:45:51.698Z,14.77
2018-05-24T20:48:19.248Z,14.23
2018-05-24T20:50:46.763Z,14.20
2018-05-24T20:53:14.279Z,14.57
2018-05-24T20:55:41.796Z,13.15
2018-05-24T20:58:09.319Z,15.60
2018-05-24T21:00:36.847Z,14.18
2018-05-24T21:03:04.365Z,16.10
2018-05-24T21:05:31.886Z,15.95
2018-05-24T21:07:59.409Z,15.77
2018-05-24T21:10:26.952Z,17.20
2018-05-24T21:12:54.475Z,16.80
2018-05-24T21:15:22.005Z,19.45
2018-05-24T21:17:49.519Z,18.70
2018-05-24T21:20:17.052Z,20.80
2018-05-24T21:22:44.571Z,22.27
2018-05-24T21:25:12.102Z,25.92
2018-05-24T21:27:39.623Z,24.95
2018-05-24T21:30:07.148Z,25.33
2018-05-24T21:32:34.678Z,24.73
2018-05-24T21:35:02.194Z,25.33
2018-05-24T21:37:29.714Z,24.12
2018-05-24T21:39:57.232Z,26.23
2018-05-24T21:42:24.755Z,27.08
2018-05-24T21:44:52.309Z,27.15
2018-05-24T21:47:19.815Z,27.23
2018-05-24T21:49:47.339Z,25.37
2018-05-24T21:52:15.167Z,26.55
2018-05-24T21:54:42.713Z,25.00
2018-05-24T21:57:10.236Z,25.88
2018-05-24T21:59:37.779Z,26.45
2018-05-24T22:02:05.358Z,26.17
2018-05-24T22:04:32.876Z,23.98
2018-05-24T22:07:01.159Z,24.15
2018-05-24T22:09:28.723Z,25.77
2018-05-24T22:11:56.240Z,25.33
2018-05-24T22:14:23.784Z,23.95
2018-05-24T22:16:51.312Z,23.80
2018-05-24T22:19:19.619Z,25.58
2018-05-24T22:21:47.140Z,24.10
2018-05-24T22:24:15.486Z,22.15
2018-05-24T22:26:43.007Z,23.92
2018-05-24T22:29:10.537Z,24.40
2018-05-24T22:31:38.830Z,23.00
2018-05-24T22:34:06.351Z,24.12
2018-05-24T22:36:33.876Z,23.00
2018-05-24T22:39:01.400Z,22.00
2018-05-24T22:41:29.689Z,21.67
2018-05-24T22:43:57.220Z,22.42
2018-05-24T22:46:24.739Z,22.10
2018-05-24T22:48:52.263Z,20.37
2018-05-24T22:51:19.789Z,21.25
2018-05-24T22:53:47.320Z,21.83
2018-05-24T22:56:14.853Z,21.73
2018-05-24T22:58:42.387Z,22.48
2018-05-24T23:01:09.899Z,21.05
2018-05-24T23:03:37.435Z,21.33
2018-05-24T23:06:04.960Z,20.30
2018-05-24T23:08:33.248Z,19.05
2018-05-24T23:11:00.764Z,19.92
2018-05-24T23:13:28.283Z,18.25
2018-05-24T23:15:55.812Z,18.02
2018-05-24T23:18:23.365Z,17.80
2018-05-24T23:20:50.887Z,18.40
2018-05-24T23:23:18.426Z,18.50
2018-05-24T23:25:46.071Z,17.92
2018-05-24T23:28:13.591Z,19.20
2018-05-24T23:30:41.107Z,17.25
2018-05-24T23:33:08.629Z,17.30
2018-05-24T23:35:36.155Z,16.37
2018-05-24T23:38:03.680Z,17.73
2018-05-24T23:40:31.981Z,17.17
2018-05-24T23:42:59.503Z,18.05
2018-05-24T23:45:27.048Z,16.37
2018-05-24T23:47:54.568Z,16.90
2018-05-24T23:50:22.111Z,17.20
2018-05-24T23:52:49.627Z,17.27
2018-05-24T23:55:17.175Z,18.40
2018-05-24T23:57:44.699Z,16.77
